Minerva Anna — SVNP — position and weather

sailwx.info

Track history (hours):
 
Tides and Currents Weather Stations Pressure Air Temp Water Temp Dewpoint Dewpoint Depression Visibility Wind Speed Wind Dir Waves Ship Positions

Minerva Anna

Last reported at 2017-Jan-17 00:21 UTC. Time now 2017-Jan-18 18:06 UTC.
Position N 37°44' E 025°40'.

Length 183 m; draft 8 m.

Type: Ship (hazmat cat A). MMSI: 240729000.

Date/timePositionNaut miles runAvg speedWind from/ knotsBaromVisibWave heightAir tempDewpointWater temp
2017-Jan-17 00:21N 37°44' E 025°40'38311.9
2017-Jan-15 16:19N 34°33' E 032°31'1013.0
2017-Jan-15 15:33N 34°31' E 032°42'1312.6
2017-Jan-15 14:33N 34°28' E 032°57'1212.5
2017-Jan-15 13:33N 34°31' E 033°12'4 3.7
2017-Jan-15 12:34N 34°31' E 033°16'1 0.9
2017-Jan-15 11:33N 34°32' E 033°17'1 0.5
2017-Jan-15 10:33N 34°32' E 033°18'1 0.6
2017-Jan-15 09:33N 34°33' E 033°18'4 4.4
2017-Jan-15 08:33N 34°28' E 033°18'5 4.5
2017-Jan-15 07:33N 34°24' E 033°18'2 2.1
2017-Jan-15 06:33N 34°22' E 033°17'1 1.3
2017-Jan-15 05:33N 34°23' E 033°17'1 1.1
2017-Jan-15 04:33N 34°24' E 033°17'1 1.1
2017-Jan-15 03:33N 34°25' E 033°16'1 1.1
2017-Jan-15 02:33N 34°26' E 033°16'1 1.1
2017-Jan-15 01:33N 34°27' E 033°17'1 1.2
2017-Jan-15 00:33N 34°29' E 033°17'1 1.2
2017-Jan-14 23:33N 34°30' E 033°17'1 1.1
2017-Jan-14 22:33N 34°31' E 033°18'1 1.0
2017-Jan-14 21:33N 34°32' E 033°18'1 0.8
2017-Jan-14 20:33N 34°33' E 033°18'1 0.6
2017-Jan-14 19:33N 34°33' E 033°19'1 0.7
2017-Jan-14 18:33N 34°33' E 033°19'3 3.3
2017-Jan-14 17:33N 34°30' E 033°20'0 0.4
2017-Jan-14 16:33N 34°30' E 033°20'0 0.3
2017-Jan-14 15:33N 34°31' E 033°20'0 0.2
2017-Jan-14 14:33N 34°31' E 033°20'0 0.3
2017-Jan-14 13:28N 34°31' E 033°20'0 0.4
2017-Jan-14 12:33N 34°32' E 033°20'1 1.0
2017-Jan-14 11:33N 34°31' E 033°21'5 5.3
2017-Jan-14 10:33N 34°26' E 033°22'6 5.3
2017-Jan-14 09:29N 34°20' E 033°23'1 0.3
2017-Jan-14 07:27N 34°21' E 033°23'5 5.1
2017-Jan-14 06:31N 34°25' E 033°22'6 5.7
2017-Jan-14 05:33N 34°31' E 033°21'2 2.0
2017-Jan-14 04:33N 34°31' E 033°19'0 0.2
2017-Jan-14 03:33N 34°31' E 033°18'13 3.3
2017-Jan-13 23:32N 34°23' E 033°31'2 0.7
2017-Jan-13 21:27N 34°24' E 033°30'2 0.8
2017-Jan-13 18:33N 34°26' E 033°27'1 0.6
2017-Jan-13 17:31N 34°26' E 033°27'3 1.6
2017-Jan-13 15:33N 34°25' E 033°24'1 0.7
2017-Jan-13 14:33N 34°25' E 033°23'2 0.8
2017-Jan-13 12:29N 34°25' E 033°21'1 1.3
2017-Jan-13 11:33N 34°24' E 033°21'1 0.0
2017-Jan-12 14:32N 34°23' E 033°21'1 0.8
2017-Jan-12 13:33N 34°23' E 033°20'1 0.8
2017-Jan-12 12:33N 34°23' E 033°19'1 0.8
2017-Jan-12 11:33N 34°23' E 033°18'1 0.9
2017-Jan-12 10:27N 34°22' E 033°19'6 0.1
2017-Jan-10 14:29N 34°22' E 033°26'2 1.8
2017-Jan-10 13:22N 34°21' E 033°24'1 1.7
2017-Jan-10 12:33N 34°20' E 033°22'2 1.6
2017-Jan-10 11:31N 34°19' E 033°21'2 1.6
2017-Jan-10 10:19N 34°17' E 033°20'4 0.1
2017-Jan-09 04:30N 34°21' E 033°18'4 3.5
2017-Jan-09 03:27N 34°24' E 033°22'3 3.5
2017-Jan-09 02:33N 34°26' E 033°24'6 5.5
2017-Jan-09 01:33N 34°24' E 033°18'7 6.7
2017-Jan-09 00:32N 34°19' E 033°12'6 6.5
2017-Jan-08 23:33N 34°15' E 033°06'1 0.2
2017-Jan-08 21:07N 34°15' E 033°06'4 5.5
2017-Jan-08 20:26N 34°16' E 033°10'6 6.3
2017-Jan-08 19:26N 34°20' E 033°16'6 6.4
2017-Jan-08 18:28N 34°24' E 033°21'2 2.0
2017-Jan-08 17:33N 34°25' E 033°23'6 6.1
2017-Jan-08 16:33N 34°22' E 033°17'6 6.3
2017-Jan-08 15:33N 34°18' E 033°11'6 6.2
2017-Jan-08 14:33N 34°14' E 033°05'6 5.7
2017-Jan-08 13:32N 34°19' E 033°09'7 7.1
2017-Jan-08 12:30N 34°24' E 033°15'7 7.3
2017-Jan-08 11:33N 34°29' E 033°09'1413.5
2017-Jan-08 10:33N 34°29' E 032°52'1414.4
2017-Jan-08 09:33N 34°29' E 032°35'1714.1
2017-Jan-08 08:21N 34°32' E 032°15'  
Track history (hours):
 
Tides and Currents Weather Stations Pressure Air Temp Water Temp Dewpoint Dewpoint Depression Visibility Wind Speed Wind Dir Waves Ship Positions

Minerva Anna

Last reported at 2017-Jan-17 00:21 UTC. Time now 2017-Jan-18 18:06 UTC.
Position N 37°44' E 025°40'.

Length 183 m; draft 8 m.

Type: Ship (hazmat cat A). MMSI: 240729000.

Date/timePositionNaut miles runAvg speedWind from/ knotsBaromVisibWave heightAir tempDewpointWater temp
2017-Jan-17 00:21N 37°44' E 025°40'38311.9
2017-Jan-15 16:19N 34°33' E 032°31'1013.0
2017-Jan-15 15:33N 34°31' E 032°42'1312.6
2017-Jan-15 14:33N 34°28' E 032°57'1212.5
2017-Jan-15 13:33N 34°31' E 033°12'4 3.7
2017-Jan-15 12:34N 34°31' E 033°16'1 0.9
2017-Jan-15 11:33N 34°32' E 033°17'1 0.5
2017-Jan-15 10:33N 34°32' E 033°18'1 0.6
2017-Jan-15 09:33N 34°33' E 033°18'4 4.4
2017-Jan-15 08:33N 34°28' E 033°18'5 4.5
2017-Jan-15 07:33N 34°24' E 033°18'2 2.1
2017-Jan-15 06:33N 34°22' E 033°17'1 1.3
2017-Jan-15 05:33N 34°23' E 033°17'1 1.1
2017-Jan-15 04:33N 34°24' E 033°17'1 1.1
2017-Jan-15 03:33N 34°25' E 033°16'1 1.1
2017-Jan-15 02:33N 34°26' E 033°16'1 1.1
2017-Jan-15 01:33N 34°27' E 033°17'1 1.2
2017-Jan-15 00:33N 34°29' E 033°17'1 1.2
2017-Jan-14 23:33N 34°30' E 033°17'1 1.1
2017-Jan-14 22:33N 34°31' E 033°18'1 1.0
2017-Jan-14 21:33N 34°32' E 033°18'1 0.8
2017-Jan-14 20:33N 34°33' E 033°18'1 0.6
2017-Jan-14 19:33N 34°33' E 033°19'1 0.7
2017-Jan-14 18:33N 34°33' E 033°19'3 3.3
2017-Jan-14 17:33N 34°30' E 033°20'0 0.4
2017-Jan-14 16:33N 34°30' E 033°20'0 0.3
2017-Jan-14 15:33N 34°31' E 033°20'0 0.2
2017-Jan-14 14:33N 34°31' E 033°20'0 0.3
2017-Jan-14 13:28N 34°31' E 033°20'0 0.4
2017-Jan-14 12:33N 34°32' E 033°20'1 1.0
2017-Jan-14 11:33N 34°31' E 033°21'5 5.3
2017-Jan-14 10:33N 34°26' E 033°22'6 5.3
2017-Jan-14 09:29N 34°20' E 033°23'1 0.3
2017-Jan-14 07:27N 34°21' E 033°23'5 5.1
2017-Jan-14 06:31N 34°25' E 033°22'6 5.7
2017-Jan-14 05:33N 34°31' E 033°21'2 2.0
2017-Jan-14 04:33N 34°31' E 033°19'0 0.2
2017-Jan-14 03:33N 34°31' E 033°18'13 3.3
2017-Jan-13 23:32N 34°23' E 033°31'2 0.7
2017-Jan-13 21:27N 34°24' E 033°30'2 0.8
2017-Jan-13 18:33N 34°26' E 033°27'1 0.6
2017-Jan-13 17:31N 34°26' E 033°27'3 1.6
2017-Jan-13 15:33N 34°25' E 033°24'1 0.7
2017-Jan-13 14:33N 34°25' E 033°23'2 0.8
2017-Jan-13 12:29N 34°25' E 033°21'1 1.3
2017-Jan-13 11:33N 34°24' E 033°21'1 0.0
2017-Jan-12 14:32N 34°23' E 033°21'1 0.8
2017-Jan-12 13:33N 34°23' E 033°20'1 0.8
2017-Jan-12 12:33N 34°23' E 033°19'1 0.8
2017-Jan-12 11:33N 34°23' E 033°18'1 0.9
2017-Jan-12 10:27N 34°22' E 033°19'6 0.1
2017-Jan-10 14:29N 34°22' E 033°26'2 1.8
2017-Jan-10 13:22N 34°21' E 033°24'1 1.7
2017-Jan-10 12:33N 34°20' E 033°22'2 1.6
2017-Jan-10 11:31N 34°19' E 033°21'2 1.6
2017-Jan-10 10:19N 34°17' E 033°20'4 0.1
2017-Jan-09 04:30N 34°21' E 033°18'4 3.5
2017-Jan-09 03:27N 34°24' E 033°22'3 3.5
2017-Jan-09 02:33N 34°26' E 033°24'6 5.5
2017-Jan-09 01:33N 34°24' E 033°18'7 6.7
2017-Jan-09 00:32N 34°19' E 033°12'6 6.5
2017-Jan-08 23:33N 34°15' E 033°06'1 0.2
2017-Jan-08 21:07N 34°15' E 033°06'4 5.5
2017-Jan-08 20:26N 34°16' E 033°10'6 6.3
2017-Jan-08 19:26N 34°20' E 033°16'6 6.4
2017-Jan-08 18:28N 34°24' E 033°21'2 2.0
2017-Jan-08 17:33N 34°25' E 033°23'6 6.1
2017-Jan-08 16:33N 34°22' E 033°17'6 6.3
2017-Jan-08 15:33N 34°18' E 033°11'6 6.2
2017-Jan-08 14:33N 34°14' E 033°05'6 5.7
2017-Jan-08 13:32N 34°19' E 033°09'7 7.1
2017-Jan-08 12:30N 34°24' E 033°15'7 7.3
2017-Jan-08 11:33N 34°29' E 033°09'1413.5
2017-Jan-08 10:33N 34°29' E 032°52'1414.4
2017-Jan-08 09:33N 34°29' E 032°35'1714.1
2017-Jan-08 08:21N 34°32' E 032°15'  

Dump ship's entire track history